Time;durP1;ratioP1;P1;durP2;ratioP2;P2;SDS_P1;SDS_P2;PMS_P1;PMS_P2;Temp;Humidity;BMP_temperature;BMP_pressure;BME280_temperature;BME280_humidity;BME280_pressure;Samples;Min_cycle;Max_cycle;Signal;HPM_P1;HPM_P2
2024/04/04 00:00:40;;;;;;;8.77;2.63;;;;;;;-146.25;100.00;52577.03;2096312;28;20045;-66
2024/04/04 00:01:41;;;;;;;8.25;2.85;;;;;;;-146.25;100.00;52562.84;2095779;28;20040;-66
2024/04/04 00:02:44;;;;;;;9.20;2.65;;;;;;;-146.25;100.00;52558.78;2095953;28;20049;-65
2024/04/04 00:03:45;;;;;;;9.50;2.88;;;;;;;-146.25;100.00;52570.97;2095623;28;20037;-65
2024/04/04 00:04:46;;;;;;;7.72;2.65;;;;;;;-146.25;100.00;52562.84;2096319;28;20037;-64
2024/04/04 00:05:53;;;;;;;6.47;2.83;;;;;;;-146.25;100.00;52593.25;2088098;28;20152;-66
2024/04/04 00:06:54;;;;;;;10.00;2.92;;;;;;;-146.25;100.00;52566.91;2089009;28;20672;-65
2024/04/04 00:07:55;;;;;;;6.28;2.50;;;;;;;-146.25;100.00;52583.13;2096398;28;20037;-65
2024/04/04 00:08:56;;;;;;;5.72;2.40;;;;;;;-146.25;100.00;52550.69;2096317;28;20423;-65
2024/04/04 00:10:00;;;;;;;7.45;2.58;;;;;;;-146.25;100.00;52587.19;2087791;28;20038;-65
2024/04/04 00:11:12;;;;;;;7.72;2.90;;;;;;;-146.25;100.00;52548.66;2080167;28;20046;-65
2024/04/04 00:12:14;;;;;;;8.57;2.70;;;;;;;-146.25;100.00;52570.97;2089628;28;20046;-66
2024/04/04 00:13:18;;;;;;;5.95;2.25;;;;;;;-146.25;100.00;52566.91;2087486;28;20037;-65
2024/04/04 00:14:19;;;;;;;9.00;2.60;;;;;;;-146.25;100.00;52566.91;2096438;28;20863;-65
2024/04/04 00:15:21;;;;;;;8.30;2.53;;;;;;;-146.25;100.00;52575.00;2095891;28;20045;-66
2024/04/04 00:16:24;;;;;;;5.03;2.40;;;;;;;-146.25;100.00;52575.00;2098562;28;20756;-64
2024/04/04 00:17:25;;;;;;;8.57;2.78;;;;;;;-146.25;100.00;52540.53;2103263;28;20806;-66
2024/04/04 00:18:26;;;;;;;8.02;2.45;;;;;;;-146.25;100.00;52566.91;2087845;28;20124;-64
2024/04/04 00:19:26;;;;;;;7.82;2.58;;;;;;;-146.25;100.00;52550.69;2095874;28;20080;-66
2024/04/04 00:20:27;;;;;;;6.45;2.60;;;;;;;-146.25;100.00;52577.03;2087949;28;20041;-65
2024/04/04 00:21:28;;;;;;;11.75;2.83;;;;;;;-146.25;100.00;52579.06;2087657;28;20037;-65
2024/04/04 00:22:32;;;;;;;7.03;2.50;;;;;;;-146.25;100.00;52566.91;2096583;28;20029;-66
2024/04/04 00:23:33;;;;;;;10.27;2.60;;;;;;;-146.25;100.00;52562.84;2095907;28;20040;-65
2024/04/04 00:24:33;;;;;;;6.72;2.47;;;;;;;-146.25;100.00;52566.91;2087828;28;20076;-65
2024/04/04 00:25:35;;;;;;;7.55;2.80;;;;;;;-146.25;100.00;52589.22;2087392;28;20141;-66
2024/04/04 00:26:36;;;;;;;9.00;2.45;;;;;;;-146.25;100.00;52607.47;2104556;28;20684;-65
2024/04/04 00:27:36;;;;;;;7.55;2.50;;;;;;;-146.25;100.00;52585.16;2104582;28;20052;-65
2024/04/04 00:28:37;;;;;;;8.13;2.60;;;;;;;-146.25;100.00;52585.16;2104427;28;20086;-64
2024/04/04 00:29:38;;;;;;;11.18;2.80;;;;;;;-146.25;100.00;52573.00;2096043;28;20087;-66
2024/04/04 00:30:39;;;;;;;11.75;2.80;;;;;;;-146.25;100.00;52544.59;2080253;28;20116;-65
2024/04/04 00:31:40;;;;;;;7.65;2.40;;;;;;;-146.25;100.00;52583.13;2087390;28;20462;-65
2024/04/04 00:32:41;;;;;;;11.13;2.63;;;;;;;-146.25;100.00;52570.97;2087419;28;20053;-66
2024/04/04 00:33:42;;;;;;;5.72;2.55;;;;;;;-146.25;100.00;52575.00;2087784;28;20096;-66
2024/04/04 00:34:43;;;;;;;9.75;2.92;;;;;;;-146.25;100.00;52570.97;2096556;28;20625;-66
2024/04/04 00:35:43;;;;;;;6.32;2.40;;;;;;;-146.25;100.00;52568.94;2095753;28;20448;-66
2024/04/04 00:36:44;;;;;;;9.95;2.42;;;;;;;-146.25;100.00;52568.94;2087860;28;20064;-65
2024/04/04 00:37:47;;;;;;;11.88;3.03;;;;;;;-146.25;100.00;52558.78;2087526;28;20075;-66
2024/04/04 00:38:48;;;;;;;8.15;2.40;;;;;;;-146.25;100.00;52554.75;2087803;28;20038;-66
2024/04/04 00:39:51;;;;;;;11.35;2.60;;;;;;;-146.25;100.00;52587.19;2087846;28;20115;-66
2024/04/04 00:40:54;;;;;;;10.25;2.65;;;;;;;-146.25;100.00;52554.75;2087957;28;20451;-66
2024/04/04 00:41:55;;;;;;;11.30;2.90;;;;;;;-146.25;100.00;52562.84;2087835;28;20889;-65
2024/04/04 00:42:59;;;;;;;7.55;2.58;;;;;;;-146.25;100.00;52566.91;2095872;28;20045;-66
2024/04/04 00:44:02;;;;;;;9.32;2.10;;;;;;;-146.25;100.00;52575.00;2095234;28;20030;-66
2024/04/04 00:45:03;;;;;;;8.85;2.60;;;;;;;-146.25;100.00;52550.69;2088104;28;20902;-66
2024/04/04 00:46:06;;;;;;;6.88;2.50;;;;;;;-146.25;100.00;52615.56;2096133;28;20937;-65
2024/04/04 00:47:07;;;;;;;6.55;2.28;;;;;;;-146.25;100.00;52585.16;2096256;28;20116;-65
2024/04/04 00:48:10;;;;;;;13.05;2.60;;;;;;;-146.25;100.00;52560.81;2087877;28;20026;-65
2024/04/04 00:49:11;;;;;;;10.38;2.75;;;;;;;-146.25;100.00;52617.59;2095870;28;20045;-67
2024/04/04 00:50:16;;;;;;;10.32;2.72;;;;;;;-146.25;100.00;52562.84;2095970;28;20049;-66
2024/04/04 00:51:20;;;;;;;10.07;2.63;;;;;;;-146.25;100.00;52589.22;2088705;28;20026;-66
2024/04/04 00:52:20;;;;;;;9.43;2.40;;;;;;;-146.25;100.00;52587.19;2087090;28;20038;-66
2024/04/04 00:53:24;;;;;;;9.32;2.65;;;;;;;-146.25;100.00;52619.63;2080739;28;20073;-66
2024/04/04 00:54:25;;;;;;;11.05;2.78;;;;;;;-146.25;100.00;52564.88;2097873;28;20925;-65
2024/04/04 00:55:26;;;;;;;11.13;2.70;;;;;;;-146.25;100.00;52558.78;2096099;28;20053;-66
2024/04/04 00:56:29;;;;;;;9.30;2.70;;;;;;;-146.25;100.00;52579.06;2098031;28;20116;-66
2024/04/04 00:57:30;;;;;;;5.55;2.88;;;;;;;-146.25;100.00;52566.91;2097537;28;20048;-66
2024/04/04 00:58:31;;;;;;;8.75;2.65;;;;;;;-146.25;100.00;52552.72;2089429;28;20033;-66
2024/04/04 00:59:32;;;;;;;7.65;3.00;;;;;;;-146.25;100.00;52575.00;2097349;28;20131;-66
2024/04/04 01:00:33;;;;;;;6.80;2.30;;;;;;;-146.25;100.00;52577.03;2097427;28;20519;-66
2024/04/04 01:01:34;;;;;;;10.57;2.85;;;;;;;-146.25;100.00;52550.69;2105447;28;20053;-66
2024/04/04 01:02:34;;;;;;;9.25;3.10;;;;;;;-146.25;100.00;52591.25;2105302;28;20037;-65
2024/04/04 01:03:36;;;;;;;9.15;2.78;;;;;;;-146.25;100.00;52560.81;2089107;28;20069;-66
2024/04/04 01:04:41;;;;;;;7.30;2.78;;;;;;;-146.25;100.00;52595.28;2097516;28;21140;-66
2024/04/04 01:05:42;;;;;;;9.55;2.75;;;;;;;-146.25;100.00;52570.97;2097391;28;20084;-66
2024/04/04 01:06:48;;;;;;;8.02;2.75;;;;;;;-146.25;100.00;52585.16;2105880;28;21023;-66
2024/04/04 01:07:49;;;;;;;7.35;2.58;;;;;;;-146.25;100.00;52599.34;2096451;28;20926;-66
2024/04/04 01:08:50;;;;;;;11.35;2.70;;;;;;;-146.25;100.00;52621.66;2080788;28;20045;-65
2024/04/04 01:09:51;;;;;;;8.65;2.75;;;;;;;-146.25;100.00;52575.00;2089248;28;20083;-65
2024/04/04 01:10:51;;;;;;;8.60;2.90;;;;;;;-146.25;100.00;52560.81;2105966;28;20581;-65
2024/04/04 01:11:54;;;;;;;6.63;2.50;;;;;;;-146.25;100.00;52568.94;2105798;28;21028;-66
2024/04/04 01:13:01;;;;;;;12.23;3.42;;;;;;;-146.25;100.00;52581.09;2081437;28;20407;-66
2024/04/04 01:14:01;;;;;;;13.85;3.17;;;;;;;-146.25;100.00;52597.31;2089248;28;20515;-66
2024/04/04 01:15:03;;;;;;;11.15;2.42;;;;;;;-146.25;100.00;52611.50;2088969;28;20056;-66
2024/04/04 01:16:03;;;;;;;9.68;2.60;;;;;;;-146.25;100.00;52599.34;2088974;28;20041;-66
2024/04/04 01:17:04;;;;;;;13.10;3.10;;;;;;;-146.25;100.00;52593.25;2105378;28;20880;-66
2024/04/04 01:18:05;;;;;;;12.43;2.75;;;;;;;-146.25;100.00;52583.13;2097478;28;20048;-66
2024/04/04 01:19:06;;;;;;;7.75;2.72;;;;;;;-146.25;100.00;52581.09;2080555;28;20042;-66
2024/04/04 01:20:08;;;;;;;7.63;2.80;;;;;;;-146.25;100.00;52573.00;2089117;28;20050;-66
2024/04/04 01:21:08;;;;;;;8.20;3.42;;;;;;;-146.25;100.00;52597.31;2105587;28;20840;-66
2024/04/04 01:22:09;;;;;;;9.48;2.70;;;;;;;-146.25;100.00;52605.44;2105505;28;20037;-65
2024/04/04 01:23:10;;;;;;;7.45;2.70;;;;;;;-146.25;100.00;52605.44;2105629;28;20499;-66
2024/04/04 01:24:11;;;;;;;11.25;2.90;;;;;;;-146.25;100.00;52587.19;2105408;28;20060;-66
2024/04/04 01:25:11;;;;;;;11.75;2.78;;;;;;;-146.25;100.00;52593.25;2089142;28;20046;-66
2024/04/04 01:26:14;;;;;;;7.32;2.55;;;;;;;-146.25;100.00;52550.69;2088976;28;20504;-66
2024/04/04 01:27:15;;;;;;;9.25;2.60;;;;;;;-146.25;100.00;52579.06;2088980;28;20865;-66
2024/04/04 01:28:15;;;;;;;10.05;2.33;;;;;;;-146.25;100.00;52579.06;2088813;28;20053;-66
2024/04/04 01:29:16;;;;;;;12.38;2.65;;;;;;;-146.25;100.00;52554.75;2088639;28;20103;-66
2024/04/04 01:30:17;;;;;;;8.40;2.47;;;;;;;-146.25;100.00;52579.06;2089003;28;20037;-66
2024/04/04 01:31:20;;;;;;;9.63;2.60;;;;;;;-146.25;100.00;52601.38;2097277;28;20462;-65
2024/04/04 01:32:21;;;;;;;11.82;2.92;;;;;;;-146.25;100.00;52621.66;2096750;28;20041;-66
2024/04/04 01:33:21;;;;;;;11.77;2.40;;;;;;;-146.25;100.00;52589.22;2088837;28;20049;-66
2024/04/04 01:34:22;;;;;;;7.80;2.42;;;;;;;-146.25;100.00;52595.28;2088996;28;20092;-66
2024/04/04 01:35:23;;;;;;;9.88;2.42;;;;;;;-146.25;100.00;52597.31;2097221;28;20396;-66
2024/04/04 01:36:26;;;;;;;7.05;2.40;;;;;;;-146.25;100.00;52577.03;2097432;28;20151;-66
2024/04/04 01:37:27;;;;;;;9.50;2.90;;;;;;;-146.25;100.00;52585.16;2097458;28;21079;-66
2024/04/04 01:38:28;;;;;;;11.20;2.20;;;;;;;-146.25;100.00;52570.97;2097380;28;20052;-66
2024/04/04 01:39:29;;;;;;;7.53;2.20;;;;;;;-146.25;100.00;52595.28;2097305;28;20041;-65
2024/04/04 01:40:30;;;;;;;13.32;2.50;;;;;;;-146.25;100.00;52593.25;2097707;28;20044;-66
2024/04/04 01:41:34;;;;;;;10.75;2.25;;;;;;;-146.25;100.00;52595.28;2089248;28;21030;-66
2024/04/04 01:42:35;;;;;;;11.52;2.50;;;;;;;-146.25;100.00;52577.03;2089558;28;20115;-66
2024/04/04 01:43:36;;;;;;;10.45;2.10;;;;;;;-146.25;100.00;52583.13;2097274;28;21065;-66
2024/04/04 01:44:37;;;;;;;8.10;1.60;;;;;;;-146.25;100.00;52597.31;2097352;28;20477;-66
2024/04/04 01:45:38;;;;;;;8.40;2.30;;;;;;;-146.25;100.00;52573.00;2097261;28;20440;-66
2024/04/04 01:46:41;;;;;;;7.55;2.10;;;;;;;-146.25;100.00;52591.25;2097038;28;20041;-66
2024/04/04 01:47:44;;;;;;;9.38;2.40;;;;;;;-146.25;100.00;52552.72;2088855;28;20045;-66
2024/04/04 01:48:45;;;;;;;7.40;1.67;;;;;;;-146.25;100.00;52579.06;2088713;28;20877;-66
2024/04/04 01:49:51;;;;;;;8.02;2.08;;;;;;;-146.25;100.00;52615.56;2097808;28;20044;-66
2024/04/04 01:50:52;;;;;;;7.72;2.05;;;;;;;-146.25;100.00;52570.97;2089080;28;20037;-66
2024/04/04 01:51:52;;;;;;;10.55;2.15;;;;;;;-146.25;100.00;52534.47;2089272;28;20522;-66
2024/04/04 01:52:53;;;;;;;8.73;1.85;;;;;;;-146.25;100.00;52577.03;2097324;28;20063;-66
2024/04/04 01:53:54;;;;;;;8.63;1.90;;;;;;;-146.25;100.00;52591.25;2097083;28;20041;-66
2024/04/04 01:54:55;;;;;;;8.60;1.73;;;;;;;-146.25;100.00;52607.47;2097208;28;20049;-66
2024/04/04 01:55:59;;;;;;;11.75;1.85;;;;;;;-146.25;100.00;52564.88;2097118;28;20041;-66
2024/04/04 01:57:00;;;;;;;6.38;1.55;;;;;;;-146.25;100.00;52570.97;2106026;28;20032;-65
2024/04/04 01:58:01;;;;;;;8.80;1.83;;;;;;;-146.25;100.00;52587.19;2105414;28;20052;-66
2024/04/04 01:59:01;;;;;;;5.93;1.70;;;;;;;-146.25;100.00;52593.25;2105833;28;20416;-66
2024/04/04 02:00:03;;;;;;;12.15;2.05;;;;;;;-146.25;100.00;52579.06;2105579;28;20115;-66
2024/04/04 02:01:12;;;;;;;10.27;1.75;;;;;;;-146.25;100.00;52595.28;2097594;28;20044;-66
2024/04/04 02:02:13;;;;;;;9.95;2.33;;;;;;;-146.25;100.00;52573.00;2097657;28;20037;-66
2024/04/04 02:03:14;;;;;;;7.47;1.50;;;;;;;-146.25;100.00;52566.91;2088589;28;20156;-65
2024/04/04 02:04:15;;;;;;;8.93;1.73;;;;;;;-146.25;100.00;52562.84;2088163;28;20033;-66
2024/04/04 02:05:15;;;;;;;11.77;1.75;;;;;;;-146.25;100.00;52587.19;2088752;28;20159;-65
2024/04/04 02:06:16;;;;;;;5.70;1.13;;;;;;;-146.25;100.00;52581.09;2089007;28;20045;-65
2024/04/04 02:07:17;;;;;;;8.52;1.55;;;;;;;-146.25;100.00;52601.38;2097336;28;20052;-66
2024/04/04 02:08:18;;;;;;;9.73;1.80;;;;;;;-146.25;100.00;52591.25;2097353;28;20301;-65
2024/04/04 02:09:20;;;;;;;10.20;1.70;;;;;;;-146.25;100.00;52558.78;2088833;28;20049;-66
2024/04/04 02:10:20;;;;;;;11.50;1.90;;;;;;;-146.25;100.00;52623.69;2088861;28;20038;-66
2024/04/04 02:11:21;;;;;;;11.68;2.08;;;;;;;-146.25;100.00;52587.19;2088993;28;20419;-66
2024/04/04 02:12:22;;;;;;;8.90;1.67;;;;;;;-146.25;100.00;52568.94;2088997;28;20111;-66
2024/04/04 02:13:28;;;;;;;7.03;1.48;;;;;;;-146.25;100.00;52589.22;2088924;28;20161;-65
2024/04/04 02:14:29;;;;;;;8.48;1.75;;;;;;;-146.25;100.00;52550.69;2089597;28;20041;-66
2024/04/04 02:15:29;;;;;;;10.00;1.77;;;;;;;-146.25;100.00;52583.13;2105505;28;20173;-66
2024/04/04 02:16:30;;;;;;;10.00;1.83;;;;;;;-146.25;100.00;52554.75;2096776;28;20052;-66
2024/04/04 02:17:31;;;;;;;10.40;1.80;;;;;;;-146.25;100.00;52558.78;2096799;28;20041;-65
2024/04/04 02:18:32;;;;;;;9.65;1.67;;;;;;;-146.25;100.00;52587.19;2114090;28;20144;-66
2024/04/04 02:19:35;;;;;;;7.28;1.63;;;;;;;-146.25;100.00;52570.97;2113842;28;20490;-66
2024/04/04 02:20:36;;;;;;;8.95;1.80;;;;;;;-146.25;100.00;52611.50;2113301;28;20532;-66
2024/04/04 02:21:37;;;;;;;12.70;2.38;;;;;;;-146.25;100.00;52566.91;2113563;28;20028;-67
2024/04/04 02:22:40;;;;;;;9.13;1.60;;;;;;;-146.25;100.00;52599.34;2113096;28;20048;-67
2024/04/04 02:23:41;;;;;;;7.97;1.90;;;;;;;-146.25;100.00;52619.63;2096879;28;20076;-66
2024/04/04 02:24:43;;;;;;;7.07;1.83;;;;;;;-146.25;100.00;52619.63;2096744;28;20149;-66
2024/04/04 02:25:43;;;;;;;8.88;1.40;;;;;;;-146.25;100.00;52595.28;2097044;28;20968;-66
2024/04/04 02:26:48;;;;;;;11.63;2.10;;;;;;;-146.25;100.00;52544.59;2080382;28;20049;-66
2024/04/04 02:27:51;;;;;;;10.20;1.88;;;;;;;-146.25;100.00;52568.94;2097167;28;20088;-66
2024/04/04 02:28:52;;;;;;;8.55;2.25;;;;;;;-146.25;100.00;52587.19;2096859;28;20025;-66
2024/04/04 02:29:52;;;;;;;6.55;2.10;;;;;;;-146.25;100.00;52564.88;2080468;28;20061;-66
2024/04/04 02:30:53;;;;;;;7.15;1.92;;;;;;;-146.25;100.00;52560.81;2097216;28;20040;-66
2024/04/04 02:31:54;;;;;;;8.00;2.10;;;;;;;-146.25;100.00;52621.66;2105300;28;20539;-66
2024/04/04 02:32:55;;;;;;;11.48;2.22;;;;;;;-146.25;100.00;52609.50;2096567;28;20094;-66
2024/04/04 02:33:56;;;;;;;9.63;2.00;;;;;;;-146.25;100.00;52599.34;2105171;28;20047;-66
2024/04/04 02:34:57;;;;;;;7.35;2.10;;;;;;;-146.25;100.00;52546.63;2113594;28;20123;-66
2024/04/04 02:35:58;;;;;;;9.50;1.92;;;;;;;-146.25;100.00;52583.13;2096664;28;20999;-66
2024/04/04 02:37:01;;;;;;;10.52;1.88;;;;;;;-146.25;100.00;52611.50;2088260;28;20037;-66
2024/04/04 02:38:02;;;;;;;10.80;2.70;;;;;;;-146.25;100.00;52587.19;2104775;28;20111;-66
2024/04/04 02:39:02;;;;;;;11.02;1.90;;;;;;;-146.25;100.00;52579.06;2113538;28;20047;-66
2024/04/04 02:40:04;;;;;;;9.32;2.08;;;;;;;-146.25;100.00;52635.84;2113473;28;20036;-66
2024/04/04 02:41:04;;;;;;;9.43;2.00;;;;;;;-146.25;100.00;52603.41;2111596;28;20142;-66
2024/04/04 02:42:06;;;;;;;10.45;1.70;;;;;;;-146.25;100.00;52575.00;2096705;28;20049;-66
2024/04/04 02:43:06;;;;;;;12.98;2.30;;;;;;;-146.25;100.00;52568.94;2080520;28;20843;-66
2024/04/04 02:44:07;;;;;;;12.68;2.40;;;;;;;-146.25;100.00;52546.63;2096846;28;20045;-66
2024/04/04 02:45:08;;;;;;;9.40;1.98;;;;;;;-146.25;100.00;52581.09;2104719;28;20035;-66
2024/04/04 02:46:09;;;;;;;7.25;2.03;;;;;;;-146.25;100.00;52597.31;2096998;28;20079;-66
2024/04/04 02:47:10;;;;;;;10.05;2.10;;;;;;;-146.25;100.00;52597.31;2088726;28;20049;-66
2024/04/04 02:48:12;;;;;;;8.07;1.40;;;;;;;-146.25;100.00;52573.00;2088132;28;20072;-66
2024/04/04 02:49:13;;;;;;;9.43;1.95;;;;;;;-146.25;100.00;52583.13;2104920;28;20074;-65
2024/04/04 02:50:14;;;;;;;9.48;1.80;;;;;;;-146.25;100.00;52575.00;2096882;28;20048;-66
2024/04/04 02:51:15;;;;;;;10.15;2.58;;;;;;;-146.25;100.00;52599.34;2096867;28;20803;-65
2024/04/04 02:52:17;;;;;;;11.10;2.03;;;;;;;-146.25;100.00;52591.25;2088188;28;20100;-66
2024/04/04 02:53:19;;;;;;;10.70;2.20;;;;;;;-146.25;100.00;52591.25;2080505;28;20034;-66
2024/04/04 02:54:23;;;;;;;8.70;1.80;;;;;;;-146.25;100.00;52591.25;2080583;28;20942;-65
2024/04/04 02:55:24;;;;;;;9.70;1.80;;;;;;;-146.25;100.00;52589.22;2097085;28;20064;-66
2024/04/04 02:56:25;;;;;;;10.23;1.70;;;;;;;-146.25;100.00;52564.88;2097013;28;20162;-66
2024/04/04 02:57:26;;;;;;;9.90;1.70;;;;;;;-146.25;100.00;52625.72;2088248;28;20045;-64
2024/04/04 02:58:27;;;;;;;7.68;1.80;;;;;;;-146.25;100.00;52599.34;2104731;28;20406;-65
2024/04/04 02:59:27;;;;;;;8.55;1.63;;;;;;;-146.25;100.00;52552.72;2105395;28;20049;-66
2024/04/04 03:00:33;;;;;;;6.82;1.75;;;;;;;-146.25;100.00;52629.75;2080018;28;20046;-66
2024/04/04 03:01:34;;;;;;;7.72;1.77;;;;;;;-146.25;100.00;52579.06;2081628;28;20962;-66
2024/04/04 03:02:37;;;;;;;11.13;1.80;;;;;;;-146.25;100.00;52585.16;2088478;28;20049;-66
2024/04/04 03:03:38;;;;;;;9.82;2.00;;;;;;;-146.25;100.00;52587.19;2088470;28;20104;-65
2024/04/04 03:04:39;;;;;;;9.35;2.15;;;;;;;-146.25;100.00;52587.19;2080321;28;20092;-66
2024/04/04 03:05:42;;;;;;;11.95;1.77;;;;;;;-146.25;100.00;52589.22;2080433;28;20128;-66
2024/04/04 03:06:43;;;;;;;6.85;1.30;;;;;;;-146.25;100.00;52570.97;2080638;28;20934;-66
2024/04/04 03:07:44;;;;;;;7.50;1.50;;;;;;;-146.25;100.00;52607.47;2080478;28;20050;-66
2024/04/04 03:08:45;;;;;;;12.80;1.75;;;;;;;-146.25;100.00;52595.28;2088342;28;20097;-66
2024/04/04 03:09:47;;;;;;;7.75;1.55;;;;;;;-146.25;100.00;52595.28;2118489;22;20607;-64
2024/04/04 03:10:48;;;;;;;7.57;1.40;;;;;;;-146.25;100.00;52570.97;2099822;28;20041;-64
2024/04/04 03:11:51;;;;;;;5.47;1.10;;;;;;;-146.25;100.00;52568.94;2096736;28;20793;-64
2024/04/04 03:12:52;;;;;;;9.13;1.63;;;;;;;-146.25;100.00;52625.72;2105302;28;20041;-64
2024/04/04 03:13:53;;;;;;;8.45;1.73;;;;;;;-146.25;100.00;52575.00;2096989;28;20033;-64
2024/04/04 03:14:54;;;;;;;9.18;1.52;;;;;;;-146.25;100.00;52587.19;2088353;28;20112;-64
2024/04/04 03:15:56;;;;;;;6.60;1.23;;;;;;;-146.25;100.00;52546.63;2095768;28;20111;-63
2024/04/04 03:16:57;;;;;;;11.30;1.73;;;;;;;-146.25;100.00;52591.25;2096628;28;20810;-64
2024/04/04 03:17:58;;;;;;;8.93;1.70;;;;;;;-146.25;100.00;52560.81;2088206;28;21048;-63
2024/04/04 03:18:59;;;;;;;9.50;1.75;;;;;;;-146.25;100.00;52585.16;2096982;28;20041;-64
2024/04/04 03:20:00;;;;;;;10.63;1.70;;;;;;;-146.25;100.00;52595.28;2096272;28;20080;-63
2024/04/04 03:21:01;;;;;;;11.10;1.67;;;;;;;-146.25;100.00;52546.63;2079764;28;20042;-64
2024/04/04 03:22:02;;;;;;;5.95;1.45;;;;;;;-146.25;100.00;52591.25;2088178;28;20069;-64
2024/04/04 03:23:03;;;;;;;10.63;1.67;;;;;;;-146.25;100.00;52629.75;2088506;28;20042;-64
2024/04/04 03:24:04;;;;;;;9.48;1.85;;;;;;;-146.25;100.00;52575.00;2096630;28;20110;-64
2024/04/04 03:25:05;;;;;;;13.40;1.70;;;;;;;-146.25;100.00;52637.88;2096576;28;20909;-64
2024/04/04 03:26:06;;;;;;;7.38;1.40;;;;;;;-146.25;100.00;52548.66;2096560;28;20041;-63
2024/04/04 03:27:07;;;;;;;10.00;1.42;;;;;;;-146.25;100.00;52595.28;2096694;28;20087;-64
2024/04/04 03:28:08;;;;;;;12.35;1.70;;;;;;;-146.25;100.00;52532.44;2096852;28;20044;-64
2024/04/04 03:29:09;;;;;;;8.43;1.75;;;;;;;-146.25;100.00;52601.38;2088558;28;20064;-64
2024/04/04 03:30:10;;;;;;;11.50;1.73;;;;;;;-146.25;100.00;52603.41;2079954;28;20042;-63
2024/04/04 03:31:11;;;;;;;13.65;2.08;;;;;;;-146.25;100.00;52583.13;2087815;28;20037;-64
2024/04/04 03:32:12;;;;;;;11.10;1.42;;;;;;;-146.25;100.00;52609.50;2088407;28;20045;-63
2024/04/04 03:33:13;;;;;;;7.55;1.20;;;;;;;-146.25;100.00;52623.69;2088150;28;20515;-64
2024/04/04 03:34:14;;;;;;;8.63;1.40;;;;;;;-146.25;100.00;52585.16;2088347;28;20041;-64
2024/04/04 03:35:15;;;;;;;11.70;1.65;;;;;;;-146.25;100.00;52587.19;2104895;28;20044;-64
2024/04/04 03:36:17;;;;;;;8.10;1.23;;;;;;;-146.25;100.00;52552.72;2105082;28;20076;-64
2024/04/04 03:37:18;;;;;;;8.70;1.67;;;;;;;-146.25;100.00;52607.47;2088220;28;20178;-63
2024/04/04 03:38:19;;;;;;;8.00;1.40;;;;;;;-146.25;100.00;52583.13;2104838;28;20127;-63
2024/04/04 03:39:20;;;;;;;8.93;1.27;;;;;;;-146.25;100.00;52621.66;2105038;28;20045;-64
2024/04/04 03:40:21;;;;;;;10.52;1.75;;;;;;;-146.25;100.00;52607.47;2087905;28;20841;-64
2024/04/04 03:41:22;;;;;;;10.25;1.38;;;;;;;-146.25;100.00;52591.25;2091569;28;20059;-64
2024/04/04 03:42:23;;;;;;;7.38;1.48;;;;;;;-146.25;100.00;52552.72;2096626;28;20048;-64
2024/04/04 03:43:25;;;;;;;9.15;1.55;;;;;;;-146.25;100.00;52595.28;2104770;28;20167;-64
2024/04/04 03:44:25;;;;;;;7.60;1.92;;;;;;;-146.25;100.00;52587.19;2088500;28;20095;-63
2024/04/04 03:45:26;;;;;;;8.77;1.45;;;;;;;-146.25;100.00;52609.50;2104751;28;20045;-64
2024/04/04 03:46:27;;;;;;;6.35;1.15;;;;;;;-146.25;100.00;52591.25;2104774;28;20029;-64
2024/04/04 03:47:37;;;;;;;6.05;1.48;;;;;;;-146.25;100.00;52583.13;2105158;28;20033;-64
2024/04/04 03:48:38;;;;;;;11.50;1.73;;;;;;;-146.25;100.00;52548.66;2095154;28;20068;-64
2024/04/04 03:49:39;;;;;;;6.82;1.10;;;;;;;-146.25;100.00;52611.50;2088282;28;20037;-63
2024/04/04 03:50:42;;;;;;;6.22;1.02;;;;;;;-146.25;100.00;52603.41;2094815;28;20045;-65
2024/04/04 03:51:45;;;;;;;11.00;1.23;;;;;;;-146.25;100.00;52595.28;2097312;28;21021;-64
2024/04/04 03:52:48;;;;;;;8.68;1.20;;;;;;;-146.25;100.00;52570.97;2096437;28;20868;-64
2024/04/04 03:53:49;;;;;;;8.30;1.08;;;;;;;-146.25;100.00;52595.28;2096617;28;20045;-64
2024/04/04 03:54:50;;;;;;;8.65;1.67;;;;;;;-146.25;100.00;52593.25;2096287;28;20598;-63
2024/04/04 03:55:51;;;;;;;10.55;1.50;;;;;;;-146.25;100.00;52623.69;2088031;28;20041;-64
2024/04/04 03:57:00;;;;;;;7.72;1.20;;;;;;;-146.25;100.00;52568.94;2089240;28;20045;-63
2024/04/04 03:58:02;;;;;;;7.82;0.90;;;;;;;-146.25;100.00;52607.47;2089290;28;20037;-65
2024/04/04 03:59:03;;;;;;;12.23;1.20;;;;;;;-146.25;100.00;52611.50;2088350;28;21017;-64
2024/04/04 04:00:09;;;;;;;7.03;1.45;;;;;;;-146.25;100.00;52591.25;2088406;28;20873;-64
2024/04/04 04:01:17;;;;;;;10.82;1.45;;;;;;;-146.25;100.00;52579.06;2089473;28;20096;-65
2024/04/04 04:02:18;;;;;;;8.50;1.35;;;;;;;-146.25;100.00;52587.19;2089229;28;20425;-64
2024/04/04 04:03:22;;;;;;;7.80;1.02;;;;;;;-146.25;100.00;52599.34;2087803;28;20056;-64
2024/04/04 04:04:22;;;;;;;8.52;1.15;;;;;;;-146.25;100.00;52603.41;2105241;28;20082;-64
2024/04/04 04:05:23;;;;;;;9.15;0.90;;;;;;;-146.25;100.00;52554.75;2104921;28;20049;-64
2024/04/04 04:06:24;;;;;;;12.05;1.10;;;;;;;-146.25;100.00;52581.09;2088240;28;20041;-64
2024/04/04 04:07:25;;;;;;;7.35;1.00;;;;;;;-146.25;100.00;52613.53;2088178;28;20045;-64
2024/04/04 04:08:26;;;;;;;8.05;0.95;;;;;;;-146.25;100.00;52575.00;2104693;28;20227;-64
2024/04/04 04:09:27;;;;;;;4.68;0.80;;;;;;;-146.25;100.00;52615.56;2096228;28;20099;-65
2024/04/04 04:10:29;;;;;;;9.23;1.10;;;;;;;-146.25;100.00;52579.06;2096100;28;20120;-63
2024/04/04 04:11:30;;;;;;;9.30;1.00;;;;;;;-146.25;100.00;52623.69;2104274;28;20829;-64
2024/04/04 04:12:31;;;;;;;7.25;1.13;;;;;;;-146.25;100.00;52568.94;2096098;28;20037;-63
2024/04/04 04:13:32;;;;;;;8.80;1.02;;;;;;;-146.25;100.00;52599.34;2096815;28;20502;-64
2024/04/04 04:14:34;;;;;;;4.65;0.82;;;;;;;-146.25;100.00;52601.38;2088205;28;20085;-63
2024/04/04 04:15:35;;;;;;;8.05;1.00;;;;;;;-146.25;100.00;52607.47;2096452;28;20124;-63
2024/04/04 04:16:36;;;;;;;9.82;1.42;;;;;;;-146.25;100.00;52613.53;2096178;28;20049;-63
2024/04/04 04:17:36;;;;;;;10.25;1.23;;;;;;;-146.25;100.00;52619.63;2087449;28;20049;-64
2024/04/04 04:18:37;;;;;;;6.30;0.95;;;;;;;-146.25;100.00;52611.50;2087526;28;20112;-63
2024/04/04 04:19:38;;;;;;;5.15;0.60;;;;;;;-146.25;100.00;52615.56;2088094;28;20048;-63
2024/04/04 04:21:59;;;;;;;7.33;0.83;;;;;;;-146.25;100.00;52583.13;2090720;28;20045;-63
2024/04/04 04:22:59;;;;;;;9.85;0.98;;;;;;;-146.25;100.00;52591.25;2087925;28;20261;-63
2024/04/04 04:24:02;;;;;;;7.28;0.70;;;;;;;-146.25;100.00;52619.63;2087948;28;20060;-63
2024/04/04 04:25:03;;;;;;;9.02;0.90;;;;;;;-146.25;100.00;52609.50;2088173;28;20049;-63
2024/04/04 04:26:04;;;;;;;4.68;0.60;;;;;;;-146.25;100.00;52589.22;2079874;28;20049;-63
2024/04/04 04:27:05;;;;;;;7.25;0.95;;;;;;;-146.25;100.00;52599.34;2088906;28;20450;-63
2024/04/04 04:28:06;;;;;;;7.40;1.05;;;;;;;-146.25;100.00;52597.31;2099240;28;20033;-63
2024/04/04 04:29:07;;;;;;;9.80;1.00;;;;;;;-146.25;100.00;52587.19;2090960;28;20037;-63
2024/04/04 04:30:08;;;;;;;3.63;0.60;;;;;;;-146.25;100.00;52607.47;2090360;28;20045;-64
2024/04/04 04:31:31;;;;;;;9.63;0.93;;;;;;;-146.25;100.00;52587.19;2090962;28;20037;-63
2024/04/04 04:32:32;;;;;;;7.93;0.82;;;;;;;-146.25;100.00;52635.84;2085525;28;20042;-63
2024/04/04 04:33:33;;;;;;;7.78;0.90;;;;;;;-146.25;100.00;52599.34;2083188;28;20042;-63
2024/04/04 04:34:34;;;;;;;7.47;0.70;;;;;;;-146.25;100.00;52593.25;2090906;28;20515;-64
2024/04/04 04:35:34;;;;;;;10.23;1.30;;;;;;;-146.25;100.00;52591.25;2090979;28;20412;-64
2024/04/04 04:37:03;;;;;;;6.88;1.10;;;;;;;-146.25;100.00;52605.44;2099049;28;20048;-63
2024/04/04 04:38:04;;;;;;;4.43;0.77;;;;;;;-146.25;100.00;52601.38;2094616;28;20041;-63
2024/04/04 04:39:04;;;;;;;7.70;0.60;;;;;;;-146.25;100.00;52613.53;2107532;28;20036;-63
2024/04/04 04:40:06;;;;;;;7.30;0.57;;;;;;;-146.25;100.00;52589.22;2107367;28;20037;-63
2024/04/04 04:41:09;;;;;;;6.50;0.73;;;;;;;-146.25;100.00;52587.19;2091023;28;20875;-62